sensor_id;sensor_type;location;lat;lon;timestamp;pressure;altitude;pressure_sealevel;temperature;humidity
40850;BME280;26571;41.610;25.380;2024-03-07T00:00:20;98345.00;;;8.43;100.00
40850;BME280;26571;41.610;25.380;2024-03-07T00:02:49;98339.31;;;8.48;100.00
40850;BME280;26571;41.610;25.380;2024-03-07T00:05:19;98355.66;;;8.42;100.00
40850;BME280;26571;41.610;25.380;2024-03-07T00:07:45;98329.00;;;8.28;100.00
40850;BME280;26571;41.610;25.380;2024-03-07T00:10:12;98341.94;;;8.30;100.00
40850;BME280;26571;41.610;25.380;2024-03-07T00:12:39;98338.03;;;8.34;100.00
40850;BME280;26571;41.610;25.380;2024-03-07T00:15:10;98324.06;;;8.25;100.00
40850;BME280;26571;41.610;25.380;2024-03-07T00:17:37;98294.75;;;8.04;100.00
40850;BME280;26571;41.610;25.380;2024-03-07T00:20:04;98335.38;;;8.26;100.00
40850;BME280;26571;41.610;25.380;2024-03-07T00:22:33;98302.97;;;8.09;100.00
40850;BME280;26571;41.610;25.380;2024-03-07T00:24:59;98289.81;;;8.01;100.00
40850;BME280;26571;41.610;25.380;2024-03-07T00:27:24;98341.72;;;8.41;100.00
40850;BME280;26571;41.610;25.380;2024-03-07T00:29:51;98326.06;;;8.32;100.00
40850;BME280;26571;41.610;25.380;2024-03-07T00:32:20;98316.84;;;8.27;100.00
40850;BME280;26571;41.610;25.380;2024-03-07T00:34:46;98328.00;;;8.29;100.00
40850;BME280;26571;41.610;25.380;2024-03-07T00:37:12;98331.53;;;8.20;100.00
40850;BME280;26571;41.610;25.380;2024-03-07T00:39:38;98316.06;;;8.09;100.00
40850;BME280;26571;41.610;25.380;2024-03-07T00:42:04;98206.69;;;7.41;100.00
40850;BME280;26571;41.610;25.380;2024-03-07T00:44:29;98325.47;;;8.20;100.00
40850;BME280;26571;41.610;25.380;2024-03-07T00:46:55;98327.44;;;8.18;100.00
40850;BME280;26571;41.610;25.380;2024-03-07T00:49:22;98286.84;;;7.78;100.00
40850;BME280;26571;41.610;25.380;2024-03-07T00:51:47;98347.78;;;7.98;100.00
40850;BME280;26571;41.610;25.380;2024-03-07T00:54:13;98324.25;;;8.06;100.00
40850;BME280;26571;41.610;25.380;2024-03-07T00:56:39;98228.50;;;7.50;100.00
40850;BME280;26571;41.610;25.380;2024-03-07T00:59:05;98301.78;;;8.03;100.00
40850;BME280;26571;41.610;25.380;2024-03-07T01:01:31;98323.31;;;8.15;100.00
40850;BME280;26571;41.610;25.380;2024-03-07T01:04:00;98258.31;;;7.93;100.00
40850;BME280;26571;41.610;25.380;2024-03-07T01:06:25;98288.56;;;8.13;100.00
40850;BME280;26571;41.610;25.380;2024-03-07T01:08:51;98299.13;;;8.21;100.00
40850;BME280;26571;41.610;25.380;2024-03-07T01:11:17;98302.25;;;8.25;100.00
40850;BME280;26571;41.610;25.380;2024-03-07T01:13:43;98298.97;;;8.23;100.00
40850;BME280;26571;41.610;25.380;2024-03-07T01:16:08;98261.44;;;7.96;100.00
40850;BME280;26571;41.610;25.380;2024-03-07T01:18:34;98314.06;;;8.29;100.00
40850;BME280;26571;41.610;25.380;2024-03-07T01:21:00;98304.09;;;8.33;100.00
40850;BME280;26571;41.610;25.380;2024-03-07T01:23:26;98286.13;;;8.38;100.00
40850;BME280;26571;41.610;25.380;2024-03-07T01:25:55;98294.06;;;8.46;100.00
40850;BME280;26571;41.610;25.380;2024-03-07T01:28:22;98280.19;;;8.36;100.00
40850;BME280;26571;41.610;25.380;2024-03-07T01:30:49;98294.66;;;8.40;100.00
40850;BME280;26571;41.610;25.380;2024-03-07T01:33:14;98293.00;;;8.39;100.00
40850;BME280;26571;41.610;25.380;2024-03-07T01:35:40;98290.09;;;8.42;100.00
40850;BME280;26571;41.610;25.380;2024-03-07T01:38:05;98292.03;;;8.40;100.00
40850;BME280;26571;41.610;25.380;2024-03-07T01:40:31;98286.94;;;8.38;100.00
40850;BME280;26571;41.610;25.380;2024-03-07T01:42:57;98289.41;;;8.40;100.00
40850;BME280;26571;41.610;25.380;2024-03-07T01:45:22;98247.63;;;8.20;100.00
40850;BME280;26571;41.610;25.380;2024-03-07T01:47:48;98271.38;;;8.37;100.00
40850;BME280;26571;41.610;25.380;2024-03-07T01:50:14;98291.63;;;8.52;100.00
40850;BME280;26571;41.610;25.380;2024-03-07T01:52:41;98259.16;;;8.27;100.00
40850;BME280;26571;41.610;25.380;2024-03-07T01:55:07;98249.78;;;8.25;100.00
40850;BME280;26571;41.610;25.380;2024-03-07T01:57:35;98288.19;;;8.52;100.00
40850;BME280;26571;41.610;25.380;2024-03-07T02:00:01;98285.22;;;8.55;100.00
40850;BME280;26571;41.610;25.380;2024-03-07T02:02:32;98279.50;;;8.60;100.00
40850;BME280;26571;41.610;25.380;2024-03-07T02:04:57;98274.50;;;8.40;100.00
40850;BME280;26571;41.610;25.380;2024-03-07T02:07:23;98270.91;;;8.41;100.00
40850;BME280;26571;41.610;25.380;2024-03-07T02:09:49;98252.47;;;8.33;100.00
40850;BME280;26571;41.610;25.380;2024-03-07T02:12:14;98287.84;;;8.55;100.00
40850;BME280;26571;41.610;25.380;2024-03-07T02:14:40;98288.34;;;8.59;100.00
40850;BME280;26571;41.610;25.380;2024-03-07T02:17:06;98264.72;;;8.50;100.00
40850;BME280;26571;41.610;25.380;2024-03-07T02:19:32;98236.19;;;8.21;100.00
40850;BME280;26571;41.610;25.380;2024-03-07T02:21:57;98220.34;;;8.05;100.00
40850;BME280;26571;41.610;25.380;2024-03-07T02:24:24;98262.72;;;8.18;100.00
40850;BME280;26571;41.610;25.380;2024-03-07T02:26:49;98254.31;;;8.15;100.00
40850;BME280;26571;41.610;25.380;2024-03-07T02:29:15;98243.28;;;8.03;100.00
40850;BME280;26571;41.610;25.380;2024-03-07T02:31:40;98273.50;;;8.15;100.00
40850;BME280;26571;41.610;25.380;2024-03-07T02:34:07;98266.53;;;7.98;100.00
40850;BME280;26571;41.610;25.380;2024-03-07T02:36:35;98216.81;;;7.62;100.00
40850;BME280;26571;41.610;25.380;2024-03-07T02:39:00;98257.00;;;7.71;100.00
40850;BME280;26571;41.610;25.380;2024-03-07T02:41:26;98263.25;;;7.52;100.00
40850;BME280;26571;41.610;25.380;2024-03-07T02:43:52;98188.31;;;6.97;100.00
40850;BME280;26571;41.610;25.380;2024-03-07T02:48:46;98255.22;;;7.54;100.00
40850;BME280;26571;41.610;25.380;2024-03-07T02:51:12;98276.09;;;7.63;100.00
40850;BME280;26571;41.610;25.380;2024-03-07T02:53:38;98265.97;;;7.68;100.00
40850;BME280;26571;41.610;25.380;2024-03-07T02:56:06;98255.56;;;7.76;100.00
40850;BME280;26571;41.610;25.380;2024-03-07T02:58:34;98268.06;;;7.83;100.00
40850;BME280;26571;41.610;25.380;2024-03-07T03:01:00;98261.38;;;7.88;100.00
40850;BME280;26571;41.610;25.380;2024-03-07T03:03:26;98238.25;;;7.84;100.00
40850;BME280;26571;41.610;25.380;2024-03-07T03:05:52;98234.66;;;7.85;100.00
40850;BME280;26571;41.610;25.380;2024-03-07T03:08:17;98251.63;;;7.98;100.00
40850;BME280;26571;41.610;25.380;2024-03-07T03:10:43;98213.94;;;7.73;100.00
40850;BME280;26571;41.610;25.380;2024-03-07T03:13:09;98248.25;;;8.06;100.00
40850;BME280;26571;41.610;25.380;2024-03-07T03:15:35;98236.69;;;7.91;100.00
40850;BME280;26571;41.610;25.380;2024-03-07T03:18:04;98258.75;;;8.14;100.00
40850;BME280;26571;41.610;25.380;2024-03-07T03:20:30;98258.56;;;8.08;100.00
40850;BME280;26571;41.610;25.380;2024-03-07T03:23:00;98264.69;;;8.16;100.00
40850;BME280;26571;41.610;25.380;2024-03-07T03:25:25;98254.44;;;8.05;100.00
40850;BME280;26571;41.610;25.380;2024-03-07T03:27:51;98241.31;;;7.79;100.00
40850;BME280;26571;41.610;25.380;2024-03-07T03:30:18;98276.00;;;7.91;100.00
40850;BME280;26571;41.610;25.380;2024-03-07T03:32:47;98276.22;;;7.80;100.00
40850;BME280;26571;41.610;25.380;2024-03-07T03:35:14;98218.94;;;7.41;100.00
40850;BME280;26571;41.610;25.380;2024-03-07T03:37:44;98268.41;;;7.88;100.00
40850;BME280;26571;41.610;25.380;2024-03-07T03:40:10;98270.97;;;7.80;100.00
40850;BME280;26571;41.610;25.380;2024-03-07T03:42:39;98254.22;;;7.72;100.00
40850;BME280;26571;41.610;25.380;2024-03-07T03:45:07;98268.34;;;7.80;100.00
40850;BME280;26571;41.610;25.380;2024-03-07T03:47:37;98262.34;;;7.87;100.00
40850;BME280;26571;41.610;25.380;2024-03-07T03:50:07;98266.81;;;7.95;100.00
40850;BME280;26571;41.610;25.380;2024-03-07T03:52:34;98258.75;;;7.88;100.00
40850;BME280;26571;41.610;25.380;2024-03-07T03:55:04;98267.38;;;7.81;100.00
40850;BME280;26571;41.610;25.380;2024-03-07T03:57:31;98270.88;;;7.89;100.00
40850;BME280;26571;41.610;25.380;2024-03-07T03:59:57;98214.34;;;7.61;100.00
40850;BME280;26571;41.610;25.380;2024-03-07T04:02:23;98259.28;;;7.92;100.00
40850;BME280;26571;41.610;25.380;2024-03-07T04:04:49;98274.75;;;8.03;100.00
40850;BME280;26571;41.610;25.380;2024-03-07T04:07:15;98260.31;;;7.99;100.00
40850;BME280;26571;41.610;25.380;2024-03-07T04:09:45;98263.28;;;8.04;100.00
40850;BME280;26571;41.610;25.380;2024-03-07T04:12:11;98273.25;;;8.00;100.00
40850;BME280;26571;41.610;25.380;2024-03-07T04:14:40;98255.13;;;8.07;100.00
40850;BME280;26571;41.610;25.380;2024-03-07T04:17:07;98269.69;;;8.10;100.00
40850;BME280;26571;41.610;25.380;2024-03-07T04:19:36;98260.72;;;8.12;100.00
40850;BME280;26571;41.610;25.380;2024-03-07T04:24:32;98270.28;;;8.21;100.00
40850;BME280;26571;41.610;25.380;2024-03-07T04:26:59;98248.88;;;8.08;100.00
40850;BME280;26571;41.610;25.380;2024-03-07T04:29:25;98266.97;;;8.19;100.00
40850;BME280;26571;41.610;25.380;2024-03-07T04:31:51;98227.81;;;7.92;100.00
40850;BME280;26571;41.610;25.380;2024-03-07T04:34:16;98262.88;;;8.17;100.00
40850;BME280;26571;41.610;25.380;2024-03-07T04:36:42;98264.06;;;8.22;100.00
40850;BME280;26571;41.610;25.380;2024-03-07T04:39:07;98240.56;;;8.13;100.00
40850;BME280;26571;41.610;25.380;2024-03-07T04:41:40;98259.22;;;8.36;100.00
40850;BME280;26571;41.610;25.380;2024-03-07T04:44:05;98264.16;;;8.39;100.00
40850;BME280;26571;41.610;25.380;2024-03-07T04:46:30;98246.31;;;8.16;100.00
40850;BME280;26571;41.610;25.380;2024-03-07T04:48:56;98259.09;;;8.37;100.00
40850;BME280;26571;41.610;25.380;2024-03-07T04:51:22;98265.50;;;8.43;100.00
40850;BME280;26571;41.610;25.380;2024-03-07T04:53:50;98257.94;;;8.40;100.00
40850;BME280;26571;41.610;25.380;2024-03-07T04:58:53;98274.06;;;8.53;100.00
40850;BME280;26571;41.610;25.380;2024-03-07T05:01:20;98266.03;;;8.54;100.00
40850;BME280;26571;41.610;25.380;2024-03-07T05:03:45;98239.63;;;8.48;100.00
40850;BME280;26571;41.610;25.380;2024-03-07T05:06:11;98260.31;;;8.51;100.00
40850;BME280;26571;41.610;25.380;2024-03-07T05:08:36;98270.56;;;8.70;100.00
40850;BME280;26571;41.610;25.380;2024-03-07T05:11:02;98259.84;;;8.56;100.00
40850;BME280;26571;41.610;25.380;2024-03-07T05:13:29;98275.53;;;8.47;100.00
40850;BME280;26571;41.610;25.380;2024-03-07T05:15:56;98261.00;;;8.35;100.00
40850;BME280;26571;41.610;25.380;2024-03-07T05:18:22;98264.94;;;8.31;100.00
40850;BME280;26571;41.610;25.380;2024-03-07T05:20:48;98215.09;;;7.97;100.00
40850;BME280;26571;41.610;25.380;2024-03-07T05:23:14;98267.81;;;8.46;100.00
40850;BME280;26571;41.610;25.380;2024-03-07T05:25:40;98277.69;;;8.52;100.00
40850;BME280;26571;41.610;25.380;2024-03-07T05:28:05;98161.94;;;7.87;100.00
40850;BME280;26571;41.610;25.380;2024-03-07T05:30:31;98276.56;;;8.63;100.00
40850;BME280;26571;41.610;25.380;2024-03-07T05:32:57;98276.41;;;8.64;100.00
40850;BME280;26571;41.610;25.380;2024-03-07T05:35:24;98274.47;;;8.74;100.00
40850;BME280;26571;41.610;25.380;2024-03-07T05:37:49;98277.78;;;8.85;100.00
40850;BME280;26571;41.610;25.380;2024-03-07T05:40:16;98276.50;;;8.89;100.00
40850;BME280;26571;41.610;25.380;2024-03-07T05:42:41;98231.81;;;8.64;100.00
40850;BME280;26571;41.610;25.380;2024-03-07T05:45:07;98277.03;;;9.00;100.00
40850;BME280;26571;41.610;25.380;2024-03-07T05:47:33;98278.03;;;9.07;100.00
40850;BME280;26571;41.610;25.380;2024-03-07T05:49:59;98276.25;;;9.16;100.00
40850;BME280;26571;41.610;25.380;2024-03-07T05:52:24;98278.88;;;9.24;100.00
40850;BME280;26571;41.610;25.380;2024-03-07T05:54:50;98279.91;;;9.31;100.00
40850;BME280;26571;41.610;25.380;2024-03-07T05:57:15;98268.38;;;9.24;100.00
40850;BME280;26571;41.610;25.380;2024-03-07T05:59:41;98275.81;;;9.45;100.00
40850;BME280;26571;41.610;25.380;2024-03-07T06:02:06;98278.94;;;9.57;100.00
40850;BME280;26571;41.610;25.380;2024-03-07T06:04:32;98273.84;;;9.64;100.00
40850;BME280;26571;41.610;25.380;2024-03-07T06:06:58;98278.94;;;9.73;100.00
40850;BME280;26571;41.610;25.380;2024-03-07T06:09:23;98282.56;;;9.80;100.00
40850;BME280;26571;41.610;25.380;2024-03-07T06:11:49;98273.66;;;9.73;100.00
40850;BME280;26571;41.610;25.380;2024-03-07T06:14:15;98256.25;;;9.72;100.00
40850;BME280;26571;41.610;25.380;2024-03-07T06:16:41;98296.81;;;10.02;100.00
40850;BME280;26571;41.610;25.380;2024-03-07T06:19:08;98301.75;;;9.97;100.00
40850;BME280;26571;41.610;25.380;2024-03-07T06:21:36;98283.19;;;10.15;100.00
40850;BME280;26571;41.610;25.380;2024-03-07T06:24:02;98294.66;;;10.22;100.00
40850;BME280;26571;41.610;25.380;2024-03-07T06:26:29;98271.50;;;10.18;100.00
40850;BME280;26571;41.610;25.380;2024-03-07T06:29:10;98300.09;;;10.29;100.00
40850;BME280;26571;41.610;25.380;2024-03-07T06:31:39;98307.19;;;10.20;100.00
40850;BME280;26571;41.610;25.380;2024-03-07T06:34:06;98306.84;;;10.15;100.00
40850;BME280;26571;41.610;25.380;2024-03-07T06:36:32;98288.44;;;9.99;100.00
40850;BME280;26571;41.610;25.380;2024-03-07T06:38:58;98283.53;;;9.96;100.00
40850;BME280;26571;41.610;25.380;2024-03-07T06:41:23;98304.88;;;10.09;100.00
40850;BME280;26571;41.610;25.380;2024-03-07T06:43:50;98292.88;;;10.15;100.00
40850;BME280;26571;41.610;25.380;2024-03-07T06:46:16;98276.63;;;9.95;100.00
40850;BME280;26571;41.610;25.380;2024-03-07T06:48:42;98287.16;;;9.70;100.00
40850;BME280;26571;41.610;25.380;2024-03-07T06:51:09;98297.66;;;9.95;100.00
40850;BME280;26571;41.610;25.380;2024-03-07T06:53:35;98271.88;;;9.66;100.00
40850;BME280;26571;41.610;25.380;2024-03-07T06:56:01;98311.13;;;9.92;100.00
40850;BME280;26571;41.610;25.380;2024-03-07T06:58:26;98304.06;;;9.92;100.00
40850;BME280;26571;41.610;25.380;2024-03-07T07:00:52;98325.59;;;9.96;100.00
40850;BME280;26571;41.610;25.380;2024-03-07T07:03:23;98299.97;;;9.90;100.00
40850;BME280;26571;41.610;25.380;2024-03-07T07:05:49;98254.47;;;9.65;100.00
40850;BME280;26571;41.610;25.380;2024-03-07T07:08:29;98315.72;;;9.98;100.00
40850;BME280;26571;41.610;25.380;2024-03-07T07:10:55;98267.75;;;9.63;100.00
40850;BME280;26571;41.610;25.380;2024-03-07T07:13:21;98320.81;;;9.83;100.00
40850;BME280;26571;41.610;25.380;2024-03-07T07:15:48;98298.81;;;9.76;100.00
40850;BME280;26571;41.610;25.380;2024-03-07T07:18:14;98304.75;;;9.70;100.00
40850;BME280;26571;41.610;25.380;2024-03-07T07:20:40;98227.31;;;8.91;100.00
40850;BME280;26571;41.610;25.380;2024-03-07T07:23:06;98301.59;;;9.58;100.00
40850;BME280;26571;41.610;25.380;2024-03-07T07:25:32;98309.81;;;9.55;100.00
40850;BME280;26571;41.610;25.380;2024-03-07T07:27:57;98311.78;;;9.45;100.00
40850;BME280;26571;41.610;25.380;2024-03-07T07:30:23;98305.69;;;9.52;100.00
40850;BME280;26571;41.610;25.380;2024-03-07T07:32:50;98294.38;;;9.52;100.00
40850;BME280;26571;41.610;25.380;2024-03-07T07:35:17;98311.78;;;9.77;100.00
40850;BME280;26571;41.610;25.380;2024-03-07T07:40:10;98292.75;;;9.75;100.00
40850;BME280;26571;41.610;25.380;2024-03-07T07:42:40;98298.31;;;9.89;100.00
40850;BME280;26571;41.610;25.380;2024-03-07T07:45:07;98320.34;;;9.96;100.00
40850;BME280;26571;41.610;25.380;2024-03-07T07:47:39;98325.94;;;9.84;100.00
40850;BME280;26571;41.610;25.380;2024-03-07T07:50:15;98319.34;;;9.72;100.00
40850;BME280;26571;41.610;25.380;2024-03-07T07:52:53;98310.50;;;9.65;100.00
40850;BME280;26571;41.610;25.380;2024-03-07T07:55:29;98279.91;;;9.48;100.00
40850;BME280;26571;41.610;25.380;2024-03-07T07:57:58;98322.63;;;9.74;100.00
40850;BME280;26571;41.610;25.380;2024-03-07T08:00:26;98324.75;;;9.79;100.00
40850;BME280;26571;41.610;25.380;2024-03-07T08:05:27;98328.22;;;9.88;100.00
40850;BME280;26571;41.610;25.380;2024-03-07T08:07:57;98325.56;;;9.63;100.00
40850;BME280;26571;41.610;25.380;2024-03-07T08:10:27;98337.09;;;9.87;100.00
40850;BME280;26571;41.610;25.380;2024-03-07T08:12:57;98288.47;;;9.50;100.00
40850;BME280;26571;41.610;25.380;2024-03-07T08:15:24;98313.75;;;9.67;100.00
40850;BME280;26571;41.610;25.380;2024-03-07T08:17:50;98302.75;;;9.64;100.00
40850;BME280;26571;41.610;25.380;2024-03-07T08:20:19;98315.72;;;9.73;100.00
40850;BME280;26571;41.610;25.380;2024-03-07T08:22:46;98340.38;;;9.89;100.00
40850;BME280;26571;41.610;25.380;2024-03-07T08:25:15;98347.13;;;9.91;100.00
40850;BME280;26571;41.610;25.380;2024-03-07T08:27:44;98340.56;;;9.87;100.00
40850;BME280;26571;41.610;25.380;2024-03-07T08:30:11;98339.06;;;9.93;100.00
40850;BME280;26571;41.610;25.380;2024-03-07T08:32:43;98278.09;;;9.48;100.00
40850;BME280;26571;41.610;25.380;2024-03-07T08:35:09;98339.09;;;9.84;100.00
40850;BME280;26571;41.610;25.380;2024-03-07T08:40:03;98338.25;;;9.84;100.00
40850;BME280;26571;41.610;25.380;2024-03-07T08:42:40;98328.88;;;9.81;100.00
40850;BME280;26571;41.610;25.380;2024-03-07T08:45:08;98343.66;;;9.74;100.00
40850;BME280;26571;41.610;25.380;2024-03-07T08:47:36;98290.75;;;9.61;100.00
40850;BME280;26571;41.610;25.380;2024-03-07T08:50:03;98352.38;;;9.99;100.00
40850;BME280;26571;41.610;25.380;2024-03-07T08:52:34;98298.97;;;9.66;100.00
40850;BME280;26571;41.610;25.380;2024-03-07T08:55:00;98342.69;;;10.00;100.00
40850;BME280;26571;41.610;25.380;2024-03-07T08:57:25;98324.94;;;10.02;100.00
40850;BME280;26571;41.610;25.380;2024-03-07T08:59:51;98348.28;;;10.21;100.00
40850;BME280;26571;41.610;25.380;2024-03-07T09:02:16;98351.22;;;10.43;100.00
40850;BME280;26571;41.610;25.380;2024-03-07T09:04:41;98326.09;;;10.16;100.00
40850;BME280;26571;41.610;25.380;2024-03-07T09:07:07;98325.91;;;10.42;100.00
40850;BME280;26571;41.610;25.380;2024-03-07T09:09:34;98318.16;;;10.48;100.00
40850;BME280;26571;41.610;25.380;2024-03-07T09:12:00;98339.63;;;10.76;100.00
40850;BME280;26571;41.610;25.380;2024-03-07T09:14:27;98346.78;;;10.59;100.00
40850;BME280;26571;41.610;25.380;2024-03-07T09:16:52;98282.69;;;10.12;100.00
40850;BME280;26571;41.610;25.380;2024-03-07T09:19:19;98350.88;;;10.54;100.00
40850;BME280;26571;41.610;25.380;2024-03-07T09:21:46;98355.81;;;10.57;100.00
40850;BME280;26571;41.610;25.380;2024-03-07T09:24:12;98348.91;;;10.56;100.00
40850;BME280;26571;41.610;25.380;2024-03-07T09:26:37;98371.91;;;10.54;100.00
40850;BME280;26571;41.610;25.380;2024-03-07T09:29:03;98354.22;;;10.40;100.00
40850;BME280;26571;41.610;25.380;2024-03-07T09:31:32;98318.03;;;10.17;100.00
40850;BME280;26571;41.610;25.380;2024-03-07T09:33:57;98329.84;;;10.38;100.00
40850;BME280;26571;41.610;25.380;2024-03-07T09:36:27;98375.22;;;10.56;100.00
40850;BME280;26571;41.610;25.380;2024-03-07T09:38:52;98350.75;;;10.31;100.00
40850;BME280;26571;41.610;25.380;2024-03-07T09:41:19;98343.19;;;10.20;100.00
40850;BME280;26571;41.610;25.380;2024-03-07T09:43:51;98357.16;;;10.37;100.00
40850;BME280;26571;41.610;25.380;2024-03-07T09:46:21;98353.88;;;10.26;100.00
40850;BME280;26571;41.610;25.380;2024-03-07T09:48:47;98302.09;;;10.02;100.00
40850;BME280;26571;41.610;25.380;2024-03-07T09:51:15;98323.31;;;10.01;100.00
40850;BME280;26571;41.610;25.380;2024-03-07T09:53:44;98349.28;;;10.28;100.00
40850;BME280;26571;41.610;25.380;2024-03-07T09:56:12;98348.31;;;10.29;100.00
40850;BME280;26571;41.610;25.380;2024-03-07T09:58:40;98353.41;;;10.31;100.00
40850;BME280;26571;41.610;25.380;2024-03-07T10:01:06;98321.69;;;10.24;100.00
40850;BME280;26571;41.610;25.380;2024-03-07T10:03:35;98347.94;;;10.41;100.00
40850;BME280;26571;41.610;25.380;2024-03-07T10:06:01;98348.94;;;10.40;100.00
40850;BME280;26571;41.610;25.380;2024-03-07T10:08:27;98311.13;;;10.08;100.00
40850;BME280;26571;41.610;25.380;2024-03-07T10:10:54;98347.94;;;10.32;100.00
40850;BME280;26571;41.610;25.380;2024-03-07T10:13:21;98334.47;;;10.11;100.00
40850;BME280;26571;41.610;25.380;2024-03-07T10:15:48;98368.63;;;10.19;100.00
40850;BME280;26571;41.610;25.380;2024-03-07T10:18:15;98319.34;;;10.13;100.00
40850;BME280;26571;41.610;25.380;2024-03-07T10:20:42;98249.34;;;9.79;100.00
40850;BME280;26571;41.610;25.380;2024-03-07T10:23:08;98341.13;;;10.71;100.00
40850;BME280;26571;41.610;25.380;2024-03-07T10:25:34;98324.84;;;10.75;100.00
40850;BME280;26571;41.610;25.380;2024-03-07T10:28:01;98336.97;;;10.84;100.00
40850;BME280;26571;41.610;25.380;2024-03-07T10:30:29;98341.06;;;10.95;100.00
40850;BME280;26571;41.610;25.380;2024-03-07T10:32:56;98313.63;;;11.12;100.00
40850;BME280;26571;41.610;25.380;2024-03-07T10:35:22;98308.44;;;11.27;100.00
40850;BME280;26571;41.610;25.380;2024-03-07T10:37:54;98325.97;;;11.43;100.00
40850;BME280;26571;41.610;25.380;2024-03-07T10:40:21;98279.81;;;11.47;100.00
40850;BME280;26571;41.610;25.380;2024-03-07T10:42:48;98258.50;;;11.57;100.00
40850;BME280;26571;41.610;25.380;2024-03-07T10:45:21;98314.66;;;11.88;100.00
40850;BME280;26571;41.610;25.380;2024-03-07T10:47:54;98278.88;;;11.63;100.00
40850;BME280;26571;41.610;25.380;2024-03-07T10:52:59;98296.59;;;12.00;100.00
40850;BME280;26571;41.610;25.380;2024-03-07T10:55:34;98315.88;;;12.01;100.00
40850;BME280;26571;41.610;25.380;2024-03-07T10:58:09;98308.53;;;12.11;100.00
40850;BME280;26571;41.610;25.380;2024-03-07T11:00:41;98291.88;;;12.25;100.00
40850;BME280;26571;41.610;25.380;2024-03-07T11:03:17;98311.22;;;12.55;100.00
40850;BME280;26571;41.610;25.380;2024-03-07T11:05:46;98283.06;;;12.48;100.00
40850;BME280;26571;41.610;25.380;2024-03-07T11:08:12;98307.56;;;12.86;100.00
40850;BME280;26571;41.610;25.380;2024-03-07T11:10:38;98320.56;;;12.58;100.00
40850;BME280;26571;41.610;25.380;2024-03-07T11:13:06;98285.59;;;12.26;100.00
40850;BME280;26571;41.610;25.380;2024-03-07T11:15:33;98308.34;;;12.27;100.00
40850;BME280;26571;41.610;25.380;2024-03-07T11:17:59;98304.63;;;12.22;100.00
40850;BME280;26571;41.610;25.380;2024-03-07T11:20:26;98290.94;;;12.03;100.00
40850;BME280;26571;41.610;25.380;2024-03-07T11:22:52;98303.41;;;11.95;100.00
40850;BME280;26571;41.610;25.380;2024-03-07T11:25:22;98312.50;;;12.07;100.00
40850;BME280;26571;41.610;25.380;2024-03-07T11:27:55;98331.94;;;11.91;100.00
40850;BME280;26571;41.610;25.380;2024-03-07T11:30:21;98309.03;;;11.69;100.00
40850;BME280;26571;41.610;25.380;2024-03-07T11:32:48;98324.88;;;11.60;100.00
40850;BME280;26571;41.610;25.380;2024-03-07T11:35:15;98285.09;;;11.47;100.00
40850;BME280;26571;41.610;25.380;2024-03-07T11:37:43;98320.09;;;11.64;100.00
40850;BME280;26571;41.610;25.380;2024-03-07T11:42:57;98325.88;;;11.59;100.00
40850;BME280;26571;41.610;25.380;2024-03-07T11:45:26;98332.91;;;11.67;100.00
40850;BME280;26571;41.610;25.380;2024-03-07T11:47:54;98332.78;;;11.60;100.00
40850;BME280;26571;41.610;25.380;2024-03-07T11:50:32;98348.19;;;11.49;100.00
40850;BME280;26571;41.610;25.380;2024-03-07T11:53:01;98282.91;;;10.57;100.00
40850;BME280;26571;41.610;25.380;2024-03-07T11:55:27;98376.13;;;10.96;100.00
40850;BME280;26571;41.610;25.380;2024-03-07T11:57:58;98368.66;;;10.52;100.00
40850;BME280;26571;41.610;25.380;2024-03-07T12:00:25;98376.41;;;10.29;100.00
40850;BME280;26571;41.610;25.380;2024-03-07T12:02:54;98373.59;;;10.22;100.00
40850;BME280;26571;41.610;25.380;2024-03-07T12:05:19;98384.63;;;10.26;100.00
40850;BME280;26571;41.610;25.380;2024-03-07T12:07:45;98385.75;;;10.15;100.00
40850;BME280;26571;41.610;25.380;2024-03-07T12:10:10;98343.19;;;9.87;100.00
40850;BME280;26571;41.610;25.380;2024-03-07T12:12:36;98395.63;;;10.21;100.00
40850;BME280;26571;41.610;25.380;2024-03-07T12:15:08;98393.81;;;10.22;100.00
40850;BME280;26571;41.610;25.380;2024-03-07T12:17:46;98391.00;;;10.23;100.00
40850;BME280;26571;41.610;25.380;2024-03-07T12:20:15;98331.53;;;9.81;100.00
40850;BME280;26571;41.610;25.380;2024-03-07T12:23:00;98377.75;;;10.25;100.00
40850;BME280;26571;41.610;25.380;2024-03-07T12:25:32;98370.13;;;10.14;100.00
40850;BME280;26571;41.610;25.380;2024-03-07T12:30:53;98338.41;;;10.07;100.00
40850;BME280;26571;41.610;25.380;2024-03-07T12:33:21;98300.97;;;9.80;100.00
40850;BME280;26571;41.610;25.380;2024-03-07T12:35:53;98312.59;;;9.94;100.00
40850;BME280;26571;41.610;25.380;2024-03-07T12:38:19;98319.34;;;10.05;100.00
40850;BME280;26571;41.610;25.380;2024-03-07T12:40:45;98331.19;;;10.25;100.00
40850;BME280;26571;41.610;25.380;2024-03-07T12:43:19;98357.47;;;10.09;100.00
40850;BME280;26571;41.610;25.380;2024-03-07T12:45:50;98307.69;;;9.75;100.00
40850;BME280;26571;41.610;25.380;2024-03-07T12:48:19;98322.97;;;9.71;100.00
40850;BME280;26571;41.610;25.380;2024-03-07T12:50:47;98326.06;;;9.58;100.00
40850;BME280;26571;41.610;25.380;2024-03-07T12:53:19;98340.75;;;9.11;100.00
40850;BME280;26571;41.610;25.380;2024-03-07T12:55:45;98347.72;;;8.86;100.00
40850;BME280;26571;41.610;25.380;2024-03-07T12:58:12;98337.91;;;8.62;100.00
40850;BME280;26571;41.610;25.380;2024-03-07T13:00:38;98322.91;;;8.46;100.00
40850;BME280;26571;41.610;25.380;2024-03-07T13:03:04;98358.31;;;8.50;100.00
40850;BME280;26571;41.610;25.380;2024-03-07T13:05:30;98333.94;;;8.32;100.00
40850;BME280;26571;41.610;25.380;2024-03-07T13:07:56;98345.34;;;8.22;100.00
40850;BME280;26571;41.610;25.380;2024-03-07T13:10:22;98359.53;;;8.12;100.00